Hc Svea Kim — V2BB — position and weather

sailwx.info

Track history (hours):
 
Tides and Currents Weather Stations Pressure Air Temp Water Temp Dewpoint Dewpoint Depression Visibility Wind Speed Wind Dir Waves Ship Positions

Hc Svea Kim

Last reported at 2016-Nov-26 07:32 UTC. Time now 2016-Dec-09 21:21 UTC.
Position N 35°57' W 005°30'.
Warning: this ship's position is 13 days out of date.

Length 129 m; draft 7.4 m.

Type: Cargo ship. MMSI: 304182000.

Date/timePositionNaut miles runAvg speedWind from/ knotsBaromVisibWave heightAir tempDewpointWater temp
2016-Nov-26 07:32N 35°57' W 005°30'256 9.4
2016-Nov-25 04:21N 38°20' W 009°57'911.1
2016-Nov-25 03:30N 38°29' W 010°01'1010.5
2016-Nov-25 02:33N 38°38' W 010°05'7 6.9
2016-Nov-25 01:33N 38°45' W 010°06'7 6.5
2016-Nov-25 00:33N 38°52' W 010°06'6 6.4
2016-Nov-24 23:33N 38°58' W 010°06'9 9.3
2016-Nov-24 22:33N 39°07' W 010°07'  
2016-Nov-20 13:05N 47°14' W 003°48'510.1
2016-Nov-20 12:33N 47°18' W 003°43'29 9.7
2016-Nov-20 09:33N 47°43' W 003°22'1 0.9
2016-Nov-20 08:31N 47°44' W 003°21'0 0.0
2016-Nov-20 07:31N 47°44' W 003°21'0 0.0
2016-Nov-20 06:31N 47°44' W 003°21'0 0.0
2016-Nov-20 05:31N 47°44' W 003°21'0 0.0
2016-Nov-20 04:31N 47°44' W 003°21'0 0.0
2016-Nov-20 03:31N 47°44' W 003°21'0 0.0
2016-Nov-20 01:31N 47°44' W 003°21'0 0.0
2016-Nov-19 23:31N 47°44' W 003°21'0 0.0
2016-Nov-19 22:31N 47°44' W 003°21'0 0.0
2016-Nov-19 20:31N 47°44' W 003°21'0 0.0
2016-Nov-19 19:32N 47°44' W 003°21'0 0.0
2016-Nov-19 17:32N 47°44' W 003°21'0 0.0
2016-Nov-19 16:32N 47°44' W 003°21'0 0.0
2016-Nov-19 14:32N 47°44' W 003°21'0 0.0
2016-Nov-19 11:32N 47°44' W 003°21'0 0.0
2016-Nov-19 09:32N 47°44' W 003°21'0 0.0
2016-Nov-19 07:32N 47°44' W 003°21'0 0.0
2016-Nov-19 05:32N 47°44' W 003°21'0 0.0
2016-Nov-19 04:32N 47°44' W 003°21'0 0.0
2016-Nov-19 03:32N 47°44' W 003°21'0 0.0
2016-Nov-19 02:32N 47°44' W 003°21'0 0.0
2016-Nov-19 01:32N 47°44' W 003°21'0 0.0
2016-Nov-19 00:32N 47°44' W 003°21'0 0.0
2016-Nov-18 23:32N 47°44' W 003°21'0 0.0
2016-Nov-18 20:32N 47°44' W 003°21'0 0.0
2016-Nov-18 18:32N 47°44' W 003°21'0 0.0
2016-Nov-18 17:32N 47°44' W 003°21'0 0.0
2016-Nov-18 14:32N 47°44' W 003°21'0 0.0
2016-Nov-18 12:32N 47°44' W 003°21'0 0.0
2016-Nov-18 11:33N 47°44' W 003°21'0 0.0
2016-Nov-18 09:32N 47°44' W 003°21'0 0.0
2016-Nov-18 07:32N 47°44' W 003°21'0 0.0
2016-Nov-18 05:32N 47°44' W 003°21'0 0.0
2016-Nov-18 04:32N 47°44' W 003°21'0 0.0
2016-Nov-18 01:32N 47°44' W 003°21'0 0.0
2016-Nov-18 00:32N 47°44' W 003°21'0 0.0
2016-Nov-17 23:32N 47°44' W 003°21'0 0.0
2016-Nov-17 22:32N 47°44' W 003°21'0 0.0
2016-Nov-17 21:32N 47°44' W 003°21'0 0.0
2016-Nov-17 19:32N 47°44' W 003°21'0 0.0
2016-Nov-17 18:32N 47°44' W 003°21'0 0.0
2016-Nov-17 14:32N 47°44' W 003°21'0 0.0
2016-Nov-17 13:32N 47°44' W 003°21'0 0.0
2016-Nov-17 12:32N 47°44' W 003°21'0 0.0
2016-Nov-17 11:32N 47°44' W 003°21'23 7.6
2016-Nov-17 08:33N 47°32' W 003°50'8613.7
2016-Nov-17 02:16N 46°31' W 005°20'  
Track history (hours):
 
Tides and Currents Weather Stations Pressure Air Temp Water Temp Dewpoint Dewpoint Depression Visibility Wind Speed Wind Dir Waves Ship Positions

Hc Svea Kim

Last reported at 2016-Nov-26 07:32 UTC. Time now 2016-Dec-09 21:21 UTC.
Position N 35°57' W 005°30'.
Warning: this ship's position is 13 days out of date.

Length 129 m; draft 7.4 m.

Type: Cargo ship. MMSI: 304182000.

Date/timePositionNaut miles runAvg speedWind from/ knotsBaromVisibWave heightAir tempDewpointWater temp
2016-Nov-26 07:32N 35°57' W 005°30'256 9.4
2016-Nov-25 04:21N 38°20' W 009°57'911.1
2016-Nov-25 03:30N 38°29' W 010°01'1010.5
2016-Nov-25 02:33N 38°38' W 010°05'7 6.9
2016-Nov-25 01:33N 38°45' W 010°06'7 6.5
2016-Nov-25 00:33N 38°52' W 010°06'6 6.4
2016-Nov-24 23:33N 38°58' W 010°06'9 9.3
2016-Nov-24 22:33N 39°07' W 010°07'  
2016-Nov-20 13:05N 47°14' W 003°48'510.1
2016-Nov-20 12:33N 47°18' W 003°43'29 9.7
2016-Nov-20 09:33N 47°43' W 003°22'1 0.9
2016-Nov-20 08:31N 47°44' W 003°21'0 0.0
2016-Nov-20 07:31N 47°44' W 003°21'0 0.0
2016-Nov-20 06:31N 47°44' W 003°21'0 0.0
2016-Nov-20 05:31N 47°44' W 003°21'0 0.0
2016-Nov-20 04:31N 47°44' W 003°21'0 0.0
2016-Nov-20 03:31N 47°44' W 003°21'0 0.0
2016-Nov-20 01:31N 47°44' W 003°21'0 0.0
2016-Nov-19 23:31N 47°44' W 003°21'0 0.0
2016-Nov-19 22:31N 47°44' W 003°21'0 0.0
2016-Nov-19 20:31N 47°44' W 003°21'0 0.0
2016-Nov-19 19:32N 47°44' W 003°21'0 0.0
2016-Nov-19 17:32N 47°44' W 003°21'0 0.0
2016-Nov-19 16:32N 47°44' W 003°21'0 0.0
2016-Nov-19 14:32N 47°44' W 003°21'0 0.0
2016-Nov-19 11:32N 47°44' W 003°21'0 0.0
2016-Nov-19 09:32N 47°44' W 003°21'0 0.0
2016-Nov-19 07:32N 47°44' W 003°21'0 0.0
2016-Nov-19 05:32N 47°44' W 003°21'0 0.0
2016-Nov-19 04:32N 47°44' W 003°21'0 0.0
2016-Nov-19 03:32N 47°44' W 003°21'0 0.0
2016-Nov-19 02:32N 47°44' W 003°21'0 0.0
2016-Nov-19 01:32N 47°44' W 003°21'0 0.0
2016-Nov-19 00:32N 47°44' W 003°21'0 0.0
2016-Nov-18 23:32N 47°44' W 003°21'0 0.0
2016-Nov-18 20:32N 47°44' W 003°21'0 0.0
2016-Nov-18 18:32N 47°44' W 003°21'0 0.0
2016-Nov-18 17:32N 47°44' W 003°21'0 0.0
2016-Nov-18 14:32N 47°44' W 003°21'0 0.0
2016-Nov-18 12:32N 47°44' W 003°21'0 0.0
2016-Nov-18 11:33N 47°44' W 003°21'0 0.0
2016-Nov-18 09:32N 47°44' W 003°21'0 0.0
2016-Nov-18 07:32N 47°44' W 003°21'0 0.0
2016-Nov-18 05:32N 47°44' W 003°21'0 0.0
2016-Nov-18 04:32N 47°44' W 003°21'0 0.0
2016-Nov-18 01:32N 47°44' W 003°21'0 0.0
2016-Nov-18 00:32N 47°44' W 003°21'0 0.0
2016-Nov-17 23:32N 47°44' W 003°21'0 0.0
2016-Nov-17 22:32N 47°44' W 003°21'0 0.0
2016-Nov-17 21:32N 47°44' W 003°21'0 0.0
2016-Nov-17 19:32N 47°44' W 003°21'0 0.0
2016-Nov-17 18:32N 47°44' W 003°21'0 0.0
2016-Nov-17 14:32N 47°44' W 003°21'0 0.0
2016-Nov-17 13:32N 47°44' W 003°21'0 0.0
2016-Nov-17 12:32N 47°44' W 003°21'0 0.0
2016-Nov-17 11:32N 47°44' W 003°21'23 7.6
2016-Nov-17 08:33N 47°32' W 003°50'8613.7
2016-Nov-17 02:16N 46°31' W 005°20'  

Dump ship's entire track history